Time;durP1;ratioP1;P1;durP2;ratioP2;P2;SDS_P1;SDS_P2;PMS_P1;PMS_P2;Temp;Humidity;BMP_temperature;BMP_pressure;BME280_temperature;BME280_humidity;BME280_pressure;Samples;Min_cycle;Max_cycle;Signal;HPM_P1;HPM_P2
2021/09/26 00:00:13;;;;;;;8.60;6.80;;;;;;;16.47;79.66;100391.13;5061805;28;20075;-53
2021/09/26 00:02:40;;;;;;;9.10;6.80;;;;;;;16.48;79.33;100391.03;5054357;28;20064;-54
2021/09/26 00:05:10;;;;;;;8.50;6.88;;;;;;;16.43;79.37;100387.81;5058837;28;20048;-54
2021/09/26 00:07:37;;;;;;;10.23;8.00;;;;;;;16.40;79.82;100397.84;5057581;28;20118;-54
2021/09/26 00:10:06;;;;;;;8.95;7.53;;;;;;;16.38;80.23;100399.78;5055625;28;20049;-54
2021/09/26 00:12:32;;;;;;;10.43;7.38;;;;;;;16.36;80.40;100409.75;5062739;28;20052;-52
2021/09/26 00:14:59;;;;;;;8.40;7.40;;;;;;;16.37;79.99;100401.59;5062906;28;20052;-52
2021/09/26 00:17:26;;;;;;;9.75;7.25;;;;;;;16.37;80.02;100396.25;5063089;28;20049;-52
2021/09/26 00:19:52;;;;;;;9.75;7.20;;;;;;;16.33;80.55;100402.81;5042683;28;20051;-52
2021/09/26 00:22:19;;;;;;;9.80;7.30;;;;;;;16.34;80.90;100401.84;5060378;28;20053;-54
2021/09/26 00:24:46;;;;;;;7.80;7.00;;;;;;;16.35;80.63;100389.34;5051909;28;20049;-53
2021/09/26 00:27:12;;;;;;;8.25;7.18;;;;;;;16.38;80.69;100394.44;5060821;28;20051;-54
2021/09/26 00:29:39;;;;;;;9.20;7.22;;;;;;;16.35;80.79;100392.00;5057042;28;20573;-53
2021/09/26 00:32:06;;;;;;;9.80;7.13;;;;;;;16.33;81.19;100397.47;5064771;28;20131;-53
2021/09/26 00:34:33;;;;;;;8.00;6.85;;;;;;;16.34;81.54;100398.31;5054021;28;20047;-53
2021/09/26 00:37:01;;;;;;;11.18;7.55;;;;;;;16.33;82.35;100392.13;5061820;28;20040;-51
2021/09/26 00:39:27;;;;;;;7.95;7.15;;;;;;;16.21;82.06;100376.09;5060477;28;20048;-52
2021/09/26 00:41:54;;;;;;;9.15;6.80;;;;;;;16.33;82.08;100389.44;5063062;28;20048;-53
2021/09/26 00:44:20;;;;;;;9.30;7.10;;;;;;;16.34;81.81;100387.63;5055130;28;20449;-51
2021/09/26 00:46:47;;;;;;;9.18;6.95;;;;;;;16.34;81.12;100385.81;5062119;28;20498;-52
2021/09/26 00:49:14;;;;;;;8.35;6.72;;;;;;;16.33;81.17;100386.78;5062050;28;20036;-53
2021/09/26 00:51:44;;;;;;;11.10;7.50;;;;;;;16.39;83.70;100372.09;5055217;28;20044;-53
2021/09/26 00:54:12;;;;;;;10.50;6.57;;;;;;;16.39;82.99;100380.97;5056241;28;20056;-54
2021/09/26 00:56:38;;;;;;;8.60;6.68;;;;;;;16.35;82.43;100375.97;5064968;28;20059;-54
2021/09/26 00:59:05;;;;;;;9.98;6.85;;;;;;;16.27;82.03;100365.81;5056895;28;20932;-53
2021/09/26 01:01:31;;;;;;;10.18;7.00;;;;;;;16.16;82.75;100362.19;5061681;28;20362;-54
2021/09/26 01:04:00;;;;;;;8.15;6.82;;;;;;;16.23;82.20;100368.81;5059981;28;20056;-53
2021/09/26 01:06:43;;;;;;;8.50;7.05;;;;;;;16.21;82.80;100368.94;5058061;28;20045;-54
2021/09/26 01:09:20;;;;;;;8.50;6.85;;;;;;;16.16;82.69;100370.22;5063864;28;20611;-53
2021/09/26 01:12:04;;;;;;;9.02;6.90;;;;;;;16.12;83.27;100367.75;5063338;28;20048;-52
2021/09/26 01:14:39;;;;;;;8.32;6.25;;;;;;;16.11;83.04;100367.84;5060916;28;20049;-52
2021/09/26 01:17:32;;;;;;;9.88;7.00;;;;;;;16.10;83.86;100369.66;5061232;28;20425;-52
2021/09/26 01:20:14;;;;;;;9.20;7.20;;;;;;;16.07;84.07;100369.03;5052562;28;20048;-53
2021/09/26 01:23:11;;;;;;;9.57;6.57;;;;;;;16.00;83.59;100375.78;5061622;28;20505;-53
2021/09/26 01:26:13;;;;;;;8.82;6.40;;;;;;;15.98;83.68;100380.38;5063398;28;20052;-54
2021/09/26 01:29:04;;;;;;;8.55;6.88;;;;;;;15.94;83.75;100371.69;5061572;28;20044;-54
2021/09/26 01:31:45;;;;;;;7.93;6.97;;;;;;;15.92;84.82;100380.78;5062876;28;20052;-54
2021/09/26 01:34:19;;;;;;;8.35;6.93;;;;;;;15.92;85.23;100375.44;5058852;28;20045;-52
2021/09/26 01:37:02;;;;;;;9.50;6.63;;;;;;;15.82;86.14;100347.69;5058912;28;20040;-53
2021/09/26 01:39:49;;;;;;;8.82;7.28;;;;;;;15.93;85.99;100372.66;5055873;28;20071;-53
2021/09/26 01:42:22;;;;;;;9.00;7.20;;;;;;;15.91;85.77;100371.91;5062374;28;20032;-52
2021/09/26 01:44:54;;;;;;;9.70;7.10;;;;;;;15.86;85.11;100365.19;5053888;28;20767;-52
2021/09/26 01:47:27;;;;;;;8.95;6.38;;;;;;;15.81;85.41;100372.66;5059685;28;20040;-53
2021/09/26 01:50:00;;;;;;;9.40;7.28;;;;;;;15.76;85.96;100381.84;5057627;28;20521;-52
2021/09/26 01:52:31;;;;;;;9.32;6.88;;;;;;;15.71;85.80;100384.00;5061299;28;20044;-52
2021/09/26 01:55:00;;;;;;;9.63;7.47;;;;;;;15.70;87.22;100384.09;5057557;28;20043;-52
2021/09/26 01:57:27;;;;;;;9.88;7.18;;;;;;;15.66;87.05;100377.25;5062207;28;20048;-53
2021/09/26 01:59:56;;;;;;;9.15;7.07;;;;;;;15.63;86.78;100380.13;5056720;28;20497;-53
2021/09/26 02:02:25;;;;;;;9.35;7.20;;;;;;;15.60;86.56;100374.97;5060399;28;20421;-54
2021/09/26 02:04:58;;;;;;;8.38;6.78;;;;;;;15.58;87.00;100374.25;5055335;28;20712;-53
2021/09/26 02:07:32;;;;;;;7.82;6.57;;;;;;;15.53;86.77;100371.00;5053689;28;20053;-53
2021/09/26 02:10:00;;;;;;;8.73;7.25;;;;;;;15.50;87.87;100379.22;5053844;28;20044;-55
2021/09/26 02:12:28;;;;;;;9.70;7.88;;;;;;;15.47;87.87;100382.94;5064032;28;20059;-54
2021/09/26 02:14:56;;;;;;;10.07;7.60;;;;;;;15.44;87.89;100377.78;5060355;28;20044;-54
2021/09/26 02:17:27;;;;;;;9.70;7.55;;;;;;;15.43;87.73;100389.44;5059319;28;20048;-54
2021/09/26 02:20:00;;;;;;;9.57;6.85;;;;;;;15.41;87.84;100383.38;5053459;28;20036;-54
2021/09/26 02:22:32;;;;;;;10.07;7.65;;;;;;;15.47;87.75;100380.25;5050376;28;20045;-53
2021/09/26 02:25:05;;;;;;;9.80;7.78;;;;;;;15.48;87.43;100381.97;5059801;28;20040;-53
2021/09/26 02:27:33;;;;;;;8.85;7.03;;;;;;;15.44;87.43;100384.00;5057335;28;20045;-54
2021/09/26 02:29:59;;;;;;;9.00;7.35;;;;;;;15.38;88.03;100387.09;5060581;28;20063;-53
2021/09/26 02:32:26;;;;;;;10.07;7.30;;;;;;;15.35;87.99;100391.75;5056647;28;20072;-53
2021/09/26 02:34:53;;;;;;;12.48;7.80;;;;;;;15.28;88.43;100391.31;5056024;28;20060;-53
2021/09/26 02:37:20;;;;;;;8.10;7.28;;;;;;;15.27;88.60;100391.41;5052181;28;20746;-52
2021/09/26 02:39:46;;;;;;;9.40;7.70;;;;;;;15.25;88.56;100386.19;5057193;28;20681;-55
2021/09/26 02:42:18;;;;;;;9.02;7.40;;;;;;;15.23;89.53;100380.09;5061081;28;20045;-54
2021/09/26 02:44:58;;;;;;;10.68;7.35;;;;;;;15.21;88.88;100386.50;5057554;28;20045;-53
2021/09/26 02:47:27;;;;;;;10.48;7.90;;;;;;;15.03;89.03;100364.56;5062213;28;20056;-52
2021/09/26 02:49:55;;;;;;;9.88;7.95;;;;;;;15.13;89.29;100392.31;5063831;28;20064;-53
2021/09/26 02:52:23;;;;;;;10.23;7.78;;;;;;;15.11;89.61;100385.41;5059181;28;20048;-53
2021/09/26 02:54:50;;;;;;;11.68;8.13;;;;;;;15.08;89.77;100381.97;5058424;28;20055;-52
2021/09/26 02:57:17;;;;;;;9.43;7.15;;;;;;;15.05;89.86;100379.50;5066787;28;20040;-53
2021/09/26 02:59:44;;;;;;;8.95;7.93;;;;;;;15.03;89.76;100381.41;5060249;28;20520;-50
2021/09/26 03:02:11;;;;;;;10.63;8.32;;;;;;;15.02;89.97;100377.03;5061176;28;20083;-52
2021/09/26 03:04:45;;;;;;;9.15;7.93;;;;;;;15.01;89.90;100377.13;5063129;28;20086;-53
2021/09/26 03:07:13;;;;;;;10.75;7.63;;;;;;;14.98;90.16;100378.19;5058665;28;20052;-53
2021/09/26 03:09:40;;;;;;;11.77;8.23;;;;;;;14.91;90.50;100368.88;5060157;28;20105;-59
2021/09/26 03:12:13;;;;;;;9.57;7.40;;;;;;;14.94;91.99;100374.03;5064777;28;20123;-53
2021/09/26 03:14:39;;;;;;;10.68;9.02;;;;;;;14.80;91.53;100360.72;5064126;28;20036;-54
2021/09/26 03:17:06;;;;;;;10.60;7.93;;;;;;;14.91;91.59;100376.88;5066518;28;20040;-55
2021/09/26 03:19:34;;;;;;;11.07;8.40;;;;;;;14.91;92.28;100376.88;5053645;28;20048;-53
2021/09/26 03:22:01;;;;;;;10.00;8.13;;;;;;;14.95;92.79;100380.22;5065645;28;20052;-52
2021/09/26 03:24:28;;;;;;;11.77;7.75;;;;;;;14.94;92.50;100371.38;5058147;28;20098;-51
2021/09/26 03:27:00;;;;;;;11.15;8.85;;;;;;;14.92;91.81;100367.94;5057833;28;20041;-52
2021/09/26 03:29:26;;;;;;;10.95;8.35;;;;;;;14.87;91.99;100379.84;5064474;28;20072;-55
2021/09/26 03:31:53;;;;;;;9.75;8.07;;;;;;;14.71;91.77;100354.19;5062493;28;20048;-53
2021/09/26 03:34:19;;;;;;;9.32;7.75;;;;;;;14.80;92.10;100375.84;5055346;28;20048;-54
2021/09/26 03:36:46;;;;;;;9.18;8.05;;;;;;;14.78;92.19;100377.78;5063139;28;20036;-54
2021/09/26 03:39:12;;;;;;;10.80;8.25;;;;;;;14.78;93.11;100383.97;5059132;28;20037;-52
2021/09/26 03:41:39;;;;;;;10.52;8.35;;;;;;;14.79;93.95;100379.50;5063962;28;20065;-53
2021/09/26 03:44:05;;;;;;;11.45;8.73;;;;;;;14.85;94.36;100374.59;5064387;28;20037;-52
2021/09/26 03:46:32;;;;;;;9.57;8.15;;;;;;;14.83;93.47;100371.19;5058324;28;20049;-52
2021/09/26 03:48:58;;;;;;;13.13;9.10;;;;;;;14.80;92.78;100365.19;5063329;28;20055;-53
2021/09/26 03:51:26;;;;;;;11.77;8.30;;;;;;;14.75;92.87;100362.84;5064506;28;20052;-54
2021/09/26 03:53:53;;;;;;;10.48;8.52;;;;;;;14.77;92.91;100362.75;5060532;28;20040;-53
2021/09/26 03:56:19;;;;;;;11.27;8.80;;;;;;;14.73;93.20;100359.41;5064626;28;20043;-53
2021/09/26 03:58:46;;;;;;;10.65;8.45;;;;;;;14.69;93.35;100360.56;5062529;28;20041;-53
2021/09/26 04:01:13;;;;;;;13.13;9.50;;;;;;;14.65;93.81;100359.91;5060775;28;20037;-53
2021/09/26 04:03:39;;;;;;;10.48;8.88;;;;;;;14.66;94.35;100360.75;5060703;28;20604;-53
2021/09/26 04:06:09;;;;;;;10.88;9.02;;;;;;;14.68;94.97;100358.84;5062581;28;20496;-54
2021/09/26 04:08:38;;;;;;;10.50;8.57;;;;;;;14.69;95.00;100371.22;5061819;28;20040;-52
2021/09/26 04:11:10;;;;;;;11.40;8.43;;;;;;;14.66;94.07;100369.59;5058491;28;20727;-53
2021/09/26 04:13:36;;;;;;;12.77;8.75;;;;;;;14.61;94.35;100363.72;5059956;28;20436;-52
2021/09/26 04:16:03;;;;;;;10.00;8.73;;;;;;;14.65;95.74;100364.38;5064764;28;20066;-52
2021/09/26 04:18:30;;;;;;;11.77;8.98;;;;;;;14.64;95.56;100362.66;5057984;28;20076;-51
2021/09/26 04:20:56;;;;;;;10.13;8.32;;;;;;;14.62;95.11;100356.59;5058129;28;20045;-51
2021/09/26 04:23:23;;;;;;;10.48;8.55;;;;;;;14.59;94.66;100364.78;5061772;28;20052;-54
2021/09/26 04:25:49;;;;;;;12.32;9.07;;;;;;;14.55;94.77;100371.25;5058777;28;20048;-54
2021/09/26 04:28:16;;;;;;;11.63;8.73;;;;;;;14.53;95.17;100370.50;5062473;28;20066;-53
2021/09/26 04:30:42;;;;;;;11.65;9.15;;;;;;;14.49;95.28;100372.47;5063244;28;20417;-53
2021/09/26 04:33:09;;;;;;;12.55;9.52;;;;;;;14.46;95.26;100371.84;5062610;28;20055;-54
2021/09/26 04:35:35;;;;;;;12.40;9.05;;;;;;;14.33;95.26;100353.91;5055037;28;20055;-52
2021/09/26 04:38:02;;;;;;;11.52;8.38;;;;;;;14.44;95.30;100371.09;5056974;28;20044;-53
2021/09/26 04:40:29;;;;;;;12.00;9.00;;;;;;;14.39;95.50;100374.84;5064045;28;20040;-52
2021/09/26 04:42:55;;;;;;;13.90;9.82;;;;;;;14.34;96.93;100344.13;5058921;28;20063;-52
2021/09/26 04:45:21;;;;;;;13.18;9.70;;;;;;;14.49;97.03;100359.16;5059353;28;20056;-54
2021/09/26 04:47:48;;;;;;;10.40;8.88;;;;;;;14.46;96.42;100366.53;5061139;28;20059;-52
2021/09/26 04:50:15;;;;;;;10.57;9.40;;;;;;;14.44;96.46;100365.75;5062540;28;20060;-52
2021/09/26 04:52:41;;;;;;;12.43;9.70;;;;;;;14.53;97.49;100376.69;5057215;28;20102;-58
2021/09/26 04:55:08;;;;;;;12.88;9.23;;;;;;;14.49;97.49;100361.81;5060162;28;20051;-52
2021/09/26 04:57:35;;;;;;;12.32;9.55;;;;;;;14.57;96.85;100380.88;5059457;28;20046;-54
2021/09/26 05:00:05;;;;;;;12.20;9.40;;;;;;;14.60;96.41;100385.16;5056327;28;20041;-53
2021/09/26 05:02:32;;;;;;;12.93;9.05;;;;;;;14.48;95.77;100368.09;5061428;28;20502;-52
2021/09/26 05:04:58;;;;;;;14.10;9.20;;;;;;;14.54;96.09;100389.03;5061397;28;20049;-53
2021/09/26 05:07:25;;;;;;;10.65;9.10;;;;;;;14.51;95.99;100385.72;5059349;28;21221;-53
2021/09/26 05:09:52;;;;;;;11.07;9.20;;;;;;;14.52;96.89;100384.75;5062596;28;21882;-52
2021/09/26 05:12:18;;;;;;;11.98;9.13;;;;;;;14.56;97.26;100392.47;5059807;28;20052;-52
2021/09/26 05:14:44;;;;;;;11.18;9.13;;;;;;;14.55;96.69;100395.22;5060027;28;20144;-52
2021/09/26 05:17:11;;;;;;;11.73;8.75;;;;;;;14.49;96.04;100388.47;5057454;28;20047;-53
2021/09/26 05:19:38;;;;;;;11.43;9.30;;;;;;;14.49;96.33;100387.63;5060100;28;20037;-53
2021/09/26 05:22:05;;;;;;;12.70;9.20;;;;;;;14.48;96.43;100381.44;5063008;28;20048;-54
2021/09/26 05:24:31;;;;;;;13.18;10.40;;;;;;;14.48;96.11;100396.59;5057161;28;20079;-53
2021/09/26 05:26:58;;;;;;;11.15;9.38;;;;;;;14.51;96.33;100391.03;5058927;28;20048;-53
2021/09/26 05:29:25;;;;;;;13.07;9.77;;;;;;;14.48;95.29;100393.94;5060229;28;20045;-53
2021/09/26 05:31:52;;;;;;;12.38;9.10;;;;;;;14.40;94.31;100397.06;5060854;28;20048;-52
2021/09/26 05:34:18;;;;;;;12.20;9.52;;;;;;;14.35;95.07;100402.63;5059550;28;20101;-53
2021/09/26 05:36:45;;;;;;;12.60;9.68;;;;;;;14.33;95.66;100393.88;5061520;28;20465;-52
2021/09/26 05:39:11;;;;;;;12.23;9.90;;;;;;;14.32;96.06;100402.81;5059563;28;20044;-53
2021/09/26 05:41:38;;;;;;;13.32;9.15;;;;;;;14.27;95.78;100394.28;5060250;28;20075;-54
2021/09/26 05:44:04;;;;;;;15.90;10.65;;;;;;;14.16;95.74;100377.25;5060167;28;20044;-53
2021/09/26 05:46:31;;;;;;;16.85;9.60;;;;;;;14.26;96.36;100395.22;5061138;28;20521;-52
2021/09/26 05:48:57;;;;;;;11.25;9.27;;;;;;;14.26;96.38;100392.56;5061618;28;20044;-52
2021/09/26 05:51:24;;;;;;;11.15;9.30;;;;;;;14.29;96.18;100394.19;5061377;28;20847;-53
2021/09/26 05:53:50;;;;;;;12.88;9.55;;;;;;;14.30;96.34;100393.25;5062688;28;20905;-53
2021/09/26 05:56:17;;;;;;;11.15;9.30;;;;;;;14.31;97.00;100395.81;5062579;28;20048;-52
2021/09/26 05:58:44;;;;;;;15.23;9.48;;;;;;;14.37;97.24;100403.41;5057724;28;20047;-51
2021/09/26 06:01:11;;;;;;;13.77;10.48;;;;;;;14.39;97.28;100409.50;5058984;28;20048;-51
2021/09/26 06:03:38;;;;;;;13.50;10.00;;;;;;;14.43;97.53;100404.00;5060202;28;20067;-53
2021/09/26 06:06:05;;;;;;;13.75;9.85;;;;;;;14.49;97.78;100406.25;5057540;28;20040;-54
2021/09/26 06:08:31;;;;;;;14.32;10.30;;;;;;;14.53;97.22;100413.13;5043509;28;20056;-53
2021/09/26 06:10:59;;;;;;;12.52;10.32;;;;;;;14.56;97.04;100410.28;5060063;28;20838;-52
2021/09/26 06:13:25;;;;;;;13.40;10.75;;;;;;;14.61;97.27;100410.84;5051319;28;20509;-51
2021/09/26 06:15:52;;;;;;;13.95;10.02;;;;;;;14.72;98.32;100413.69;5052027;28;20048;-53
2021/09/26 06:18:19;;;;;;;11.73;10.45;;;;;;;14.75;97.10;100405.50;5052596;28;20505;-54
2021/09/26 06:20:47;;;;;;;12.77;10.18;;;;;;;14.76;96.56;100404.53;5052990;28;20569;-54
2021/09/26 06:23:14;;;;;;;13.80;9.73;;;;;;;14.77;96.74;100408.91;5053100;28;20555;-52
2021/09/26 06:25:41;;;;;;;13.38;10.38;;;;;;;14.82;96.54;100401.47;5058368;28;20052;-53
2021/09/26 06:28:08;;;;;;;14.77;11.07;;;;;;;14.87;96.83;100404.69;5052395;28;20052;-51
2021/09/26 06:30:36;;;;;;;12.82;10.68;;;;;;;14.97;97.35;100410.28;5052756;28;20111;-52
2021/09/26 06:33:04;;;;;;;12.55;10.10;;;;;;;15.08;97.07;100402.47;5050189;28;20762;-53
2021/09/26 06:35:32;;;;;;;12.70;10.75;;;;;;;15.15;96.40;100411.75;5058102;28;20052;-53
2021/09/26 06:38:00;;;;;;;12.07;10.45;;;;;;;15.23;96.34;100403.25;5052626;28;20044;-52
2021/09/26 06:40:26;;;;;;;16.48;11.07;;;;;;;15.28;96.07;100407.31;5054912;28;20048;-52
2021/09/26 06:42:53;;;;;;;11.88;10.35;;;;;;;15.42;96.80;100411.75;5057860;28;20151;-59
2021/09/26 06:45:20;;;;;;;18.38;11.98;;;;;;;15.55;96.06;100415.34;5062491;28;20044;-56
2021/09/26 06:47:46;;;;;;;14.95;10.95;;;;;;;15.68;95.75;100412.69;5055319;28;20044;-52
2021/09/26 06:50:13;;;;;;;15.05;11.20;;;;;;;15.81;95.40;100410.91;5058944;28;20044;-52
2021/09/26 06:52:39;;;;;;;15.85;11.18;;;;;;;16.00;95.09;100406.00;5048877;28;20076;-52
2021/09/26 06:55:07;;;;;;;15.90;11.07;;;;;;;16.13;94.10;100404.19;5054030;28;20071;-54
2021/09/26 06:57:33;;;;;;;13.57;11.57;;;;;;;16.21;93.33;100419.69;5052898;28;20053;-53
2021/09/26 07:00:00;;;;;;;13.15;10.90;;;;;;;16.31;93.03;100433.25;5057741;28;20049;-54
2021/09/26 07:02:27;;;;;;;15.73;11.40;;;;;;;16.39;92.75;100429.06;5052530;28;20052;-53
2021/09/26 07:04:54;;;;;;;15.98;13.57;;;;;;;16.51;92.20;100419.34;5058397;28;20044;-53
2021/09/26 07:07:24;;;;;;;19.38;13.80;;;;;;;16.62;91.84;100410.56;5052783;28;20071;-52
2021/09/26 07:09:51;;;;;;;15.27;12.13;;;;;;;16.77;91.21;100421.03;5050374;28;20076;-53
2021/09/26 07:12:19;;;;;;;15.07;12.02;;;;;;;16.88;90.77;100414.91;5053563;28;20414;-53
2021/09/26 07:14:46;;;;;;;16.23;12.55;;;;;;;17.02;90.09;100419.25;5050447;28;20048;-52
2021/09/26 07:17:13;;;;;;;16.65;12.80;;;;;;;17.11;89.63;100432.81;5055292;28;20048;-54
2021/09/26 07:19:40;;;;;;;20.65;14.15;;;;;;;17.22;89.25;100431.16;5050707;28;20045;-53
2021/09/26 07:22:06;;;;;;;18.05;14.48;;;;;;;17.33;88.91;100436.56;5057755;28;20512;-54
2021/09/26 07:24:33;;;;;;;17.95;13.38;;;;;;;17.43;88.18;100432.25;5060478;28;20064;-52
2021/09/26 07:27:00;;;;;;;16.35;13.40;;;;;;;17.51;87.72;100433.38;5059859;28;20090;-52
2021/09/26 07:29:27;;;;;;;15.57;12.50;;;;;;;17.63;87.25;100438.78;5053070;28;20425;-52
2021/09/26 07:31:53;;;;;;;18.88;14.02;;;;;;;17.73;87.13;100434.47;5051522;28;20051;-53
2021/09/26 07:34:20;;;;;;;20.73;15.60;;;;;;;17.80;86.80;100439.22;5047540;28;20102;-53
2021/09/26 07:36:47;;;;;;;21.45;16.13;;;;;;;17.86;86.29;100437.91;5055400;28;20044;-54
2021/09/26 07:39:14;;;;;;;21.33;16.58;;;;;;;17.95;86.09;100436.34;5057361;28;20497;-54
2021/09/26 07:41:40;;;;;;;20.17;17.17;;;;;;;18.02;85.80;100429.56;5055391;28;20040;-52
2021/09/26 07:44:07;;;;;;;24.92;18.90;;;;;;;18.10;85.58;100432.50;5047486;28;22809;-52
2021/09/26 07:46:34;;;;;;;25.08;18.27;;;;;;;18.15;85.01;100433.84;5057999;28;20048;-53
2021/09/26 07:49:02;;;;;;;23.08;16.20;;;;;;;18.28;85.16;100427.50;5062701;28;20041;-53
2021/09/26 07:51:29;;;;;;;25.40;19.13;;;;;;;18.39;84.33;100435.59;5055740;28;20047;-53
2021/09/26 07:53:55;;;;;;;25.73;19.70;;;;;;;18.49;84.25;100437.41;5057274;28;20267;-53
2021/09/26 07:56:22;;;;;;;24.00;19.50;;;;;;;18.58;83.26;100438.50;5057964;28;20056;-54
2021/09/26 07:58:49;;;;;;;24.90;19.73;;;;;;;18.70;83.52;100444.78;5060781;28;20047;-53
2021/09/26 08:01:16;;;;;;;24.75;18.33;;;;;;;18.76;82.56;100439.75;5063857;28;20041;-54
2021/09/26 08:03:44;;;;;;;23.75;18.95;;;;;;;18.84;82.33;100425.72;5060522;28;20059;-54
2021/09/26 08:06:10;;;;;;;26.55;18.98;;;;;;;18.99;81.81;100442.41;5063489;28;20070;-54
2021/09/26 08:09:02;;;;;;;24.67;19.70;;;;;;;19.06;81.02;100441.78;5062577;28;20461;-54
2021/09/26 08:11:29;;;;;;;21.88;17.52;;;;;;;19.26;80.71;100450.91;5064427;28;20048;-51
2021/09/26 08:13:55;;;;;;;20.70;16.23;;;;;;;19.46;79.78;100443.88;5058934;28;20055;-56
2021/09/26 08:16:21;;;;;;;23.33;18.77;;;;;;;19.61;79.00;100456.06;5063193;28;20503;-53
2021/09/26 08:18:48;;;;;;;21.35;17.77;;;;;;;19.74;77.77;100456.75;5063278;28;20890;-54
2021/09/26 08:21:15;;;;;;;23.15;18.13;;;;;;;19.84;77.46;100467.56;5060748;28;20036;-52
2021/09/26 08:23:43;;;;;;;24.98;17.75;;;;;;;19.93;76.42;100467.66;5059233;28;20171;-54
2021/09/26 08:26:09;;;;;;;20.77;17.55;;;;;;;20.10;76.27;100476.97;5062965;28;20047;-53
2021/09/26 08:28:36;;;;;;;20.70;16.05;;;;;;;20.27;75.50;100475.53;5058833;28;20055;-53
2021/09/26 08:31:02;;;;;;;20.05;15.70;;;;;;;20.38;74.72;100467.41;5060034;28;20064;-52
2021/09/26 08:33:29;;;;;;;20.00;16.75;;;;;;;20.39;74.38;100473.63;5060497;28;20090;-53
2021/09/26 08:35:56;;;;;;;21.30;16.52;;;;;;;20.34;74.35;100465.94;5062030;28;20044;-53
2021/09/26 08:38:26;;;;;;;19.05;15.50;;;;;;;20.37;75.09;100473.78;5062925;28;20151;-53
2021/09/26 08:40:52;;;;;;;22.80;15.77;;;;;;;20.45;75.91;100484.75;5061634;28;20055;-52
2021/09/26 08:43:19;;;;;;;18.48;14.13;;;;;;;20.75;74.51;100485.72;5062384;28;20048;-53
2021/09/26 08:45:47;;;;;;;17.48;14.93;;;;;;;21.10;72.60;100478.03;5062726;28;20428;-51
2021/09/26 08:48:14;;;;;;;16.67;13.98;;;;;;;21.35;71.10;100476.75;5061508;28;20278;-53
2021/09/26 08:50:43;;;;;;;16.02;13.55;;;;;;;21.57;69.77;100467.53;5056570;28;20033;-53
2021/09/26 08:53:09;;;;;;;18.05;13.80;;;;;;;21.77;69.34;100477.34;5055851;28;20048;-53
2021/09/26 08:55:36;;;;;;;16.00;11.38;;;;;;;21.97;68.87;100478.19;5058811;28;20127;-52
2021/09/26 08:58:03;;;;;;;15.18;12.73;;;;;;;22.36;67.81;100482.56;5059178;28;20044;-53
2021/09/26 09:00:30;;;;;;;14.43;11.75;;;;;;;22.66;65.99;100486.06;5059411;28;20490;-54
2021/09/26 09:02:58;;;;;;;15.60;12.85;;;;;;;23.02;64.78;100479.78;5062334;28;20541;-52
2021/09/26 09:05:42;;;;;;;15.70;10.77;;;;;;;23.36;63.89;100473.78;5054249;28;20058;-53
2021/09/26 09:08:15;;;;;;;14.50;11.50;;;;;;;23.61;61.81;100496.56;5062852;28;20058;-53
2021/09/26 09:11:03;;;;;;;14.40;11.23;;;;;;;23.57;60.53;100490.59;5060750;28;20040;-52
2021/09/26 09:13:33;;;;;;;16.42;10.82;;;;;;;23.11;62.46;100496.97;5057305;28;20052;-53
2021/09/26 09:16:14;;;;;;;15.63;11.00;;;;;;;23.02;64.04;100500.56;5063586;28;20113;-53
2021/09/26 09:18:50;;;;;;;12.00;10.27;;;;;;;23.08;63.13;100495.41;5061774;28;20048;-54
2021/09/26 09:21:20;;;;;;;11.75;10.55;;;;;;;23.36;62.53;100498.09;5058899;28;20520;-52
2021/09/26 09:23:50;;;;;;;13.18;10.32;;;;;;;23.54;61.53;100507.13;5059800;28;20229;-54
2021/09/26 09:26:33;;;;;;;16.73;10.23;;;;;;;23.76;61.44;100506.69;5061571;28;20043;-53
2021/09/26 09:29:01;;;;;;;14.60;10.23;;;;;;;24.00;59.77;100491.69;5057345;28;20045;-52
2021/09/26 09:31:27;;;;;;;12.90;10.23;;;;;;;24.10;60.09;100487.88;5061663;28;20044;-54
2021/09/26 09:33:54;;;;;;;13.43;10.60;;;;;;;24.16;59.68;100480.13;5057339;28;20041;-53
2021/09/26 09:36:28;;;;;;;12.70;9.30;;;;;;;24.51;58.39;100484.66;5060462;28;20414;-54
2021/09/26 09:39:02;;;;;;;16.38;10.60;;;;;;;24.60;58.70;100480.97;5060910;28;20060;-51
2021/09/26 09:41:43;;;;;;;10.13;8.50;;;;;;;24.75;58.14;100482.06;5059840;28;20048;-53
2021/09/26 09:44:12;;;;;;;11.45;8.95;;;;;;;24.99;57.29;100475.97;5059499;28;20051;-53
2021/09/26 09:46:44;;;;;;;13.73;9.52;;;;;;;25.11;55.87;100482.78;5061072;28;20036;-53
2021/09/26 09:49:19;;;;;;;12.57;9.70;;;;;;;24.64;56.95;100482.38;5062662;28;20099;-52
2021/09/26 09:51:50;;;;;;;12.93;10.30;;;;;;;23.79;60.56;100500.94;5056275;28;20041;-52
2021/09/26 09:54:39;;;;;;;13.55;10.25;;;;;;;23.22;63.23;100504.00;5058376;28;20437;-52
2021/09/26 09:57:14;;;;;;;12.18;10.77;;;;;;;22.80;65.30;100511.75;5049936;28;20516;-54
2021/09/26 09:59:47;;;;;;;12.02;9.70;;;;;;;22.55;67.08;100511.34;5052201;28;20091;-52
2021/09/26 10:02:15;;;;;;;14.43;10.32;;;;;;;22.56;66.50;100514.91;5051577;28;20044;-53
2021/09/26 10:04:45;;;;;;;12.35;10.50;;;;;;;22.52;66.49;100513.47;5064549;28;20044;-53
2021/09/26 10:07:22;;;;;;;13.30;10.77;;;;;;;22.57;66.98;100522.00;5052955;28;20048;-53
2021/09/26 10:09:51;;;;;;;13.13;10.02;;;;;;;22.51;66.74;100520.72;5052114;28;20052;-54
2021/09/26 10:12:30;;;;;;;11.73;10.35;;;;;;;22.41;67.18;100506.41;5061366;28;20047;-52
2021/09/26 10:15:03;;;;;;;10.68;9.57;;;;;;;22.27;67.24;100520.34;5065665;28;20561;-53
2021/09/26 10:17:30;;;;;;;15.13;11.38;;;;;;;22.02;68.11;100513.72;5063244;28;20056;-52
2021/09/26 10:19:57;;;;;;;13.77;11.00;;;;;;;21.81;69.43;100516.50;5063558;28;20059;-53
2021/09/26 10:22:25;;;;;;;13.63;10.68;;;;;;;21.68;69.46;100524.00;5059894;28;20071;-53
2021/09/26 10:24:55;;;;;;;13.77;10.50;;;;;;;21.67;69.79;100516.91;5060607;28;20669;-54
2021/09/26 10:27:23;;;;;;;13.35;10.43;;;;;;;21.65;70.33;100514.38;5058532;28;20151;-54
2021/09/26 10:29:57;;;;;;;14.35;10.38;;;;;;;21.65;69.98;100508.13;5051943;28;20055;-53
2021/09/26 10:32:24;;;;;;;13.65;9.63;;;;;;;21.77;69.85;100515.06;5058640;28;20053;-53
2021/09/26 10:34:51;;;;;;;13.43;9.95;;;;;;;21.89;69.15;100505.84;5058922;28;20045;-54
2021/09/26 10:37:20;;;;;;;13.40;10.32;;;;;;;21.93;68.69;100501.88;5056664;28;20048;-53
2021/09/26 10:39:48;;;;;;;13.65;10.82;;;;;;;21.92;68.92;100499.31;5057143;28;20036;-53
2021/09/26 10:42:26;;;;;;;14.35;9.85;;;;;;;21.92;69.54;100499.31;5057237;28;20060;-54
2021/09/26 10:45:00;;;;;;;11.23;9.98;;;;;;;21.92;69.23;100505.56;5053140;28;20045;-53
2021/09/26 10:47:28;;;;;;;13.55;9.52;;;;;;;21.87;69.31;100513.25;5054538;28;20049;-54
2021/09/26 10:50:01;;;;;;;13.07;9.95;;;;;;;21.82;69.78;100520.91;5053605;28;20486;-54
2021/09/26 10:52:39;;;;;;;11.48;8.55;;;;;;;21.78;69.71;100508.69;5057908;28;20059;-54
2021/09/26 10:55:15;;;;;;;15.18;9.50;;;;;;;21.77;69.84;100512.38;5059416;28;20048;-51
2021/09/26 10:57:45;;;;;;;10.57;8.43;;;;;;;21.76;70.25;100518.75;5059898;28;20079;-53
2021/09/26 11:00:29;;;;;;;12.13;8.88;;;;;;;21.80;69.73;100528.28;5058715;28;20044;-52
2021/09/26 11:03:07;;;;;;;13.00;9.48;;;;;;;21.80;69.42;100522.03;5057597;28;20468;-55
2021/09/26 11:05:36;;;;;;;14.90;9.50;;;;;;;21.75;69.61;100524.28;5054459;28;20059;-53
2021/09/26 11:08:06;;;;;;;12.95;9.02;;;;;;;21.70;70.39;100530.97;5057229;28;20048;-53
2021/09/26 11:10:42;;;;;;;12.85;8.80;;;;;;;21.63;70.89;100535.22;5057814;28;20066;-51
2021/09/26 11:13:12;;;;;;;14.25;9.55;;;;;;;21.57;71.17;100542.97;5064589;28;20043;-54
2021/09/26 11:16:19;;;;;;;18.77;11.88;;;;;;;21.40;72.00;100551.75;5057864;28;20567;-53
2021/09/26 11:18:53;;;;;;;14.05;10.60;;;;;;;21.26;72.66;100548.44;4980034;28;20498;-53
2021/09/26 11:21:35;;;;;;;14.93;11.13;;;;;;;21.13;73.46;100539.72;4978477;28;20482;-53
2021/09/26 11:24:16;;;;;;;14.05;10.60;;;;;;;21.01;73.72;100536.28;5029103;28;20041;-52
2021/09/26 11:26:58;;;;;;;16.77;11.63;;;;;;;20.93;75.02;100537.94;5063853;28;20036;-54